sensor_id;sensor_type;location;lat;lon;timestamp;temperature;humidity
802;DHT22;383;48.766;9.270;2022-09-17T00:01:35;11.80;97.70
802;DHT22;383;48.766;9.270;2022-09-17T00:04:03;11.80;98.20
802;DHT22;383;48.766;9.270;2022-09-17T00:06:31;11.80;97.50
802;DHT22;383;48.766;9.270;2022-09-17T00:08:58;11.90;97.60
802;DHT22;383;48.766;9.270;2022-09-17T00:11:27;11.90;96.90
802;DHT22;383;48.766;9.270;2022-09-17T00:13:55;11.90;96.60
802;DHT22;383;48.766;9.270;2022-09-17T00:16:26;11.90;95.30
802;DHT22;383;48.766;9.270;2022-09-17T00:18:54;11.90;95.60
802;DHT22;383;48.766;9.270;2022-09-17T00:21:21;11.90;95.30
802;DHT22;383;48.766;9.270;2022-09-17T00:23:51;11.90;95.90
802;DHT22;383;48.766;9.270;2022-09-17T00:26:18;11.90;96.50
802;DHT22;383;48.766;9.270;2022-09-17T00:28:48;11.90;96.60
802;DHT22;383;48.766;9.270;2022-09-17T00:31:15;11.90;95.00
802;DHT22;383;48.766;9.270;2022-09-17T00:33:43;11.90;95.60
802;DHT22;383;48.766;9.270;2022-09-17T00:36:09;11.80;95.00
802;DHT22;383;48.766;9.270;2022-09-17T00:38:36;11.80;95.30
802;DHT22;383;48.766;9.270;2022-09-17T00:41:03;11.80;96.30
802;DHT22;383;48.766;9.270;2022-09-17T00:43:36;11.80;96.00
802;DHT22;383;48.766;9.270;2022-09-17T00:46:05;11.80;94.00
802;DHT22;383;48.766;9.270;2022-09-17T00:48:32;11.70;95.10
802;DHT22;383;48.766;9.270;2022-09-17T00:51:00;11.80;96.10
802;DHT22;383;48.766;9.270;2022-09-17T00:53:27;11.70;96.30
802;DHT22;383;48.766;9.270;2022-09-17T00:56:00;11.80;94.30
802;DHT22;383;48.766;9.270;2022-09-17T00:58:29;11.80;94.80
802;DHT22;383;48.766;9.270;2022-09-17T01:00:56;11.80;94.60
802;DHT22;383;48.766;9.270;2022-09-17T01:03:24;11.70;95.30
802;DHT22;383;48.766;9.270;2022-09-17T01:05:58;11.80;96.10
802;DHT22;383;48.766;9.270;2022-09-17T01:08:48;11.80;96.00
802;DHT22;383;48.766;9.270;2022-09-17T01:11:34;11.90;96.40
802;DHT22;383;48.766;9.270;2022-09-17T01:14:15;11.90;95.80
802;DHT22;383;48.766;9.270;2022-09-17T01:16:47;11.90;95.90
802;DHT22;383;48.766;9.270;2022-09-17T01:22:33;11.80;95.20
802;DHT22;383;48.766;9.270;2022-09-17T01:25:19;11.70;95.20
802;DHT22;383;48.766;9.270;2022-09-17T01:28:08;11.70;96.00
802;DHT22;383;48.766;9.270;2022-09-17T01:33:58;11.60;96.30
802;DHT22;383;48.766;9.270;2022-09-17T01:36:36;11.50;96.20
802;DHT22;383;48.766;9.270;2022-09-17T01:39:11;11.50;96.70
802;DHT22;383;48.766;9.270;2022-09-17T01:41:45;11.50;96.70
802;DHT22;383;48.766;9.270;2022-09-17T01:44:20;11.40;97.10
802;DHT22;383;48.766;9.270;2022-09-17T01:46:52;11.30;97.20
802;DHT22;383;48.766;9.270;2022-09-17T01:49:22;11.30;97.60
802;DHT22;383;48.766;9.270;2022-09-17T01:51:52;11.30;97.70
802;DHT22;383;48.766;9.270;2022-09-17T01:54:23;11.40;97.80
802;DHT22;383;48.766;9.270;2022-09-17T01:56:55;11.40;97.50
802;DHT22;383;48.766;9.270;2022-09-17T01:59:28;11.50;97.70
802;DHT22;383;48.766;9.270;2022-09-17T02:01:59;11.50;97.80
802;DHT22;383;48.766;9.270;2022-09-17T02:04:32;11.60;97.80
802;DHT22;383;48.766;9.270;2022-09-17T02:07:03;11.60;97.80
802;DHT22;383;48.766;9.270;2022-09-17T02:09:35;11.60;97.10
802;DHT22;383;48.766;9.270;2022-09-17T02:12:05;11.70;96.80
802;DHT22;383;48.766;9.270;2022-09-17T02:14:34;11.70;96.60
802;DHT22;383;48.766;9.270;2022-09-17T02:17:09;11.80;96.10
802;DHT22;383;48.766;9.270;2022-09-17T02:19:39;11.80;96.30
802;DHT22;383;48.766;9.270;2022-09-17T02:22:13;11.70;95.70
802;DHT22;383;48.766;9.270;2022-09-17T02:24:46;11.80;94.80
802;DHT22;383;48.766;9.270;2022-09-17T02:27:19;11.80;93.90
802;DHT22;383;48.766;9.270;2022-09-17T02:29:48;11.70;94.40
802;DHT22;383;48.766;9.270;2022-09-17T02:32:15;11.70;94.20
802;DHT22;383;48.766;9.270;2022-09-17T02:34:43;11.70;94.20
802;DHT22;383;48.766;9.270;2022-09-17T02:37:11;11.60;94.60
802;DHT22;383;48.766;9.270;2022-09-17T02:39:37;11.60;95.20
802;DHT22;383;48.766;9.270;2022-09-17T02:42:11;11.50;95.30
802;DHT22;383;48.766;9.270;2022-09-17T02:44:56;11.60;94.80
802;DHT22;383;48.766;9.270;2022-09-17T02:47:37;11.60;95.10
802;DHT22;383;48.766;9.270;2022-09-17T02:50:22;11.60;95.10
802;DHT22;383;48.766;9.270;2022-09-17T02:53:11;11.70;95.20
802;DHT22;383;48.766;9.270;2022-09-17T02:55:42;11.70;93.60
802;DHT22;383;48.766;9.270;2022-09-17T02:58:19;11.80;94.10
802;DHT22;383;48.766;9.270;2022-09-17T03:00:47;11.70;95.00
802;DHT22;383;48.766;9.270;2022-09-17T03:03:19;11.70;95.90
802;DHT22;383;48.766;9.270;2022-09-17T03:05:49;11.70;94.80
802;DHT22;383;48.766;9.270;2022-09-17T03:08:16;11.60;95.20
802;DHT22;383;48.766;9.270;2022-09-17T03:10:44;11.60;95.50
802;DHT22;383;48.766;9.270;2022-09-17T03:13:14;11.60;94.80
802;DHT22;383;48.766;9.270;2022-09-17T03:15:40;11.60;94.70
802;DHT22;383;48.766;9.270;2022-09-17T03:18:07;11.70;94.60
802;DHT22;383;48.766;9.270;2022-09-17T03:20:34;11.60;94.10
802;DHT22;383;48.766;9.270;2022-09-17T03:23:02;11.60;94.60
802;DHT22;383;48.766;9.270;2022-09-17T03:25:29;11.60;94.30
802;DHT22;383;48.766;9.270;2022-09-17T03:27:56;11.60;94.40
802;DHT22;383;48.766;9.270;2022-09-17T03:30:22;11.60;94.20
802;DHT22;383;48.766;9.270;2022-09-17T03:32:49;11.50;94.50
802;DHT22;383;48.766;9.270;2022-09-17T03:35:16;11.40;94.60
802;DHT22;383;48.766;9.270;2022-09-17T03:37:42;11.40;94.90
802;DHT22;383;48.766;9.270;2022-09-17T03:40:10;11.40;95.10
802;DHT22;383;48.766;9.270;2022-09-17T03:42:37;11.40;94.60
802;DHT22;383;48.766;9.270;2022-09-17T03:45:05;11.40;95.00
802;DHT22;383;48.766;9.270;2022-09-17T03:47:32;11.40;95.20
802;DHT22;383;48.766;9.270;2022-09-17T03:49:58;11.40;95.40
802;DHT22;383;48.766;9.270;2022-09-17T03:52:25;11.40;95.90
802;DHT22;383;48.766;9.270;2022-09-17T03:54:52;11.40;96.10
802;DHT22;383;48.766;9.270;2022-09-17T03:57:20;11.50;96.30
802;DHT22;383;48.766;9.270;2022-09-17T03:59:47;11.50;96.30
802;DHT22;383;48.766;9.270;2022-09-17T04:02:13;11.50;95.50
802;DHT22;383;48.766;9.270;2022-09-17T04:04:40;11.50;95.60
802;DHT22;383;48.766;9.270;2022-09-17T04:07:07;11.40;94.80
802;DHT22;383;48.766;9.270;2022-09-17T04:09:34;11.40;95.10
802;DHT22;383;48.766;9.270;2022-09-17T04:12:01;11.40;94.90
802;DHT22;383;48.766;9.270;2022-09-17T04:14:29;11.30;95.10
802;DHT22;383;48.766;9.270;2022-09-17T04:16:57;11.30;95.40
802;DHT22;383;48.766;9.270;2022-09-17T04:19:24;11.30;94.70
802;DHT22;383;48.766;9.270;2022-09-17T04:21:50;11.20;95.40
802;DHT22;383;48.766;9.270;2022-09-17T04:24:17;11.20;95.70
802;DHT22;383;48.766;9.270;2022-09-17T04:26:44;11.20;95.70
802;DHT22;383;48.766;9.270;2022-09-17T04:29:11;11.20;94.80
802;DHT22;383;48.766;9.270;2022-09-17T04:31:39;11.20;95.10
802;DHT22;383;48.766;9.270;2022-09-17T04:34:05;11.20;94.40
802;DHT22;383;48.766;9.270;2022-09-17T04:36:32;11.30;93.40
802;DHT22;383;48.766;9.270;2022-09-17T04:38:59;11.30;93.20
802;DHT22;383;48.766;9.270;2022-09-17T04:41:26;11.30;93.60
802;DHT22;383;48.766;9.270;2022-09-17T04:43:53;11.30;93.90
802;DHT22;383;48.766;9.270;2022-09-17T04:46:19;11.40;94.30
802;DHT22;383;48.766;9.270;2022-09-17T04:48:47;11.40;93.90
802;DHT22;383;48.766;9.270;2022-09-17T04:51:14;11.50;92.80
802;DHT22;383;48.766;9.270;2022-09-17T04:53:41;11.40;92.10
802;DHT22;383;48.766;9.270;2022-09-17T04:56:07;11.40;92.80
802;DHT22;383;48.766;9.270;2022-09-17T04:58:37;11.40;93.50
802;DHT22;383;48.766;9.270;2022-09-17T05:01:06;11.50;93.30
802;DHT22;383;48.766;9.270;2022-09-17T05:03:33;11.50;92.80
802;DHT22;383;48.766;9.270;2022-09-17T05:06:01;11.50;93.10
802;DHT22;383;48.766;9.270;2022-09-17T05:08:28;11.60;91.70
802;DHT22;383;48.766;9.270;2022-09-17T05:10:55;11.70;92.20
802;DHT22;383;48.766;9.270;2022-09-17T05:13:22;11.70;92.20
802;DHT22;383;48.766;9.270;2022-09-17T05:15:49;11.70;92.20
802;DHT22;383;48.766;9.270;2022-09-17T05:18:16;11.80;92.50
802;DHT22;383;48.766;9.270;2022-09-17T05:20:43;11.80;91.70
802;DHT22;383;48.766;9.270;2022-09-17T05:23:11;11.80;91.90
802;DHT22;383;48.766;9.270;2022-09-17T05:25:38;11.80;91.40
802;DHT22;383;48.766;9.270;2022-09-17T05:28:08;11.90;90.60
802;DHT22;383;48.766;9.270;2022-09-17T05:30:34;11.90;90.90
802;DHT22;383;48.766;9.270;2022-09-17T05:33:03;11.90;91.20
802;DHT22;383;48.766;9.270;2022-09-17T05:35:30;11.90;90.70
802;DHT22;383;48.766;9.270;2022-09-17T05:37:58;11.90;91.00
802;DHT22;383;48.766;9.270;2022-09-17T05:40:27;12.00;91.30
802;DHT22;383;48.766;9.270;2022-09-17T05:42:57;11.90;88.80
802;DHT22;383;48.766;9.270;2022-09-17T05:45:24;11.80;90.30
802;DHT22;383;48.766;9.270;2022-09-17T05:47:54;11.80;90.90
802;DHT22;383;48.766;9.270;2022-09-17T05:50:21;11.80;90.90
802;DHT22;383;48.766;9.270;2022-09-17T05:52:48;11.80;91.30
802;DHT22;383;48.766;9.270;2022-09-17T05:55:15;11.80;91.20
802;DHT22;383;48.766;9.270;2022-09-17T05:57:43;11.90;91.20
802;DHT22;383;48.766;9.270;2022-09-17T06:00:11;11.90;90.50
802;DHT22;383;48.766;9.270;2022-09-17T06:02:38;11.90;89.80
802;DHT22;383;48.766;9.270;2022-09-17T06:05:05;12.00;90.60
802;DHT22;383;48.766;9.270;2022-09-17T06:07:35;12.10;89.00
802;DHT22;383;48.766;9.270;2022-09-17T06:10:03;12.10;90.30
802;DHT22;383;48.766;9.270;2022-09-17T06:12:30;12.20;89.90
802;DHT22;383;48.766;9.270;2022-09-17T06:15:01;12.10;89.30
802;DHT22;383;48.766;9.270;2022-09-17T06:17:28;12.20;89.80
802;DHT22;383;48.766;9.270;2022-09-17T06:19:57;12.30;89.90
802;DHT22;383;48.766;9.270;2022-09-17T06:22:24;12.30;89.70
802;DHT22;383;48.766;9.270;2022-09-17T06:24:51;12.30;89.80
802;DHT22;383;48.766;9.270;2022-09-17T06:27:18;12.30;88.10
802;DHT22;383;48.766;9.270;2022-09-17T06:29:45;12.30;88.40
802;DHT22;383;48.766;9.270;2022-09-17T06:32:13;12.30;89.60
802;DHT22;383;48.766;9.270;2022-09-17T06:34:41;12.40;89.90
802;DHT22;383;48.766;9.270;2022-09-17T06:37:08;12.50;87.10
802;DHT22;383;48.766;9.270;2022-09-17T06:39:34;12.40;86.50
802;DHT22;383;48.766;9.270;2022-09-17T06:42:01;12.20;87.60
802;DHT22;383;48.766;9.270;2022-09-17T06:44:28;12.10;88.50
802;DHT22;383;48.766;9.270;2022-09-17T06:46:56;12.20;89.70
802;DHT22;383;48.766;9.270;2022-09-17T06:49:24;12.30;88.80
802;DHT22;383;48.766;9.270;2022-09-17T06:51:51;12.20;89.00
802;DHT22;383;48.766;9.270;2022-09-17T06:54:18;12.10;89.30
802;DHT22;383;48.766;9.270;2022-09-17T06:56:45;12.10;89.80
802;DHT22;383;48.766;9.270;2022-09-17T06:59:12;12.20;89.20
802;DHT22;383;48.766;9.270;2022-09-17T07:01:39;12.40;87.30
802;DHT22;383;48.766;9.270;2022-09-17T07:04:05;12.50;87.20
802;DHT22;383;48.766;9.270;2022-09-17T07:06:33;12.40;86.70
802;DHT22;383;48.766;9.270;2022-09-17T07:09:00;12.40;86.40
802;DHT22;383;48.766;9.270;2022-09-17T07:11:28;12.30;86.70
802;DHT22;383;48.766;9.270;2022-09-17T07:13:55;12.30;86.30
802;DHT22;383;48.766;9.270;2022-09-17T07:16:22;12.30;86.30
802;DHT22;383;48.766;9.270;2022-09-17T07:18:51;12.30;87.30
802;DHT22;383;48.766;9.270;2022-09-17T07:21:17;12.30;86.80
802;DHT22;383;48.766;9.270;2022-09-17T07:23:45;12.10;87.70
802;DHT22;383;48.766;9.270;2022-09-17T07:26:16;12.10;87.70
802;DHT22;383;48.766;9.270;2022-09-17T07:28:43;12.10;87.80
802;DHT22;383;48.766;9.270;2022-09-17T07:31:11;12.10;89.20
802;DHT22;383;48.766;9.270;2022-09-17T07:33:38;12.00;88.80
802;DHT22;383;48.766;9.270;2022-09-17T07:36:06;12.00;90.60
802;DHT22;383;48.766;9.270;2022-09-17T07:38:34;12.00;90.90
802;DHT22;383;48.766;9.270;2022-09-17T07:41:04;12.00;91.20
802;DHT22;383;48.766;9.270;2022-09-17T07:43:33;11.80;91.90
802;DHT22;383;48.766;9.270;2022-09-17T07:46:02;11.80;92.70
802;DHT22;383;48.766;9.270;2022-09-17T07:48:29;11.80;94.00
802;DHT22;383;48.766;9.270;2022-09-17T07:50:56;11.70;93.70
802;DHT22;383;48.766;9.270;2022-09-17T07:53:23;11.80;94.30
802;DHT22;383;48.766;9.270;2022-09-17T07:55:51;11.90;95.20
802;DHT22;383;48.766;9.270;2022-09-17T07:58:19;11.90;95.70
802;DHT22;383;48.766;9.270;2022-09-17T08:00:46;11.90;94.00
802;DHT22;383;48.766;9.270;2022-09-17T08:03:14;11.80;95.00
802;DHT22;383;48.766;9.270;2022-09-17T08:05:40;11.70;95.80
802;DHT22;383;48.766;9.270;2022-09-17T08:08:07;11.70;96.50
802;DHT22;383;48.766;9.270;2022-09-17T08:10:34;11.70;96.10
802;DHT22;383;48.766;9.270;2022-09-17T08:13:01;11.70;96.10
802;DHT22;383;48.766;9.270;2022-09-17T08:15:29;11.80;96.90
802;DHT22;383;48.766;9.270;2022-09-17T08:17:55;11.90;96.10
802;DHT22;383;48.766;9.270;2022-09-17T08:20:22;11.90;94.70
802;DHT22;383;48.766;9.270;2022-09-17T08:22:57;11.80;95.00
802;DHT22;383;48.766;9.270;2022-09-17T08:25:24;11.80;96.40
802;DHT22;383;48.766;9.270;2022-09-17T08:27:52;11.80;95.80
802;DHT22;383;48.766;9.270;2022-09-17T08:30:19;11.90;95.90
802;DHT22;383;48.766;9.270;2022-09-17T08:32:47;12.00;95.90
802;DHT22;383;48.766;9.270;2022-09-17T08:35:14;12.20;95.20
802;DHT22;383;48.766;9.270;2022-09-17T08:37:42;12.30;93.30
802;DHT22;383;48.766;9.270;2022-09-17T08:40:11;12.20;93.10
802;DHT22;383;48.766;9.270;2022-09-17T08:42:48;12.20;92.70
802;DHT22;383;48.766;9.270;2022-09-17T08:45:19;12.40;91.10
802;DHT22;383;48.766;9.270;2022-09-17T08:47:48;12.50;93.00
802;DHT22;383;48.766;9.270;2022-09-17T08:50:20;12.70;92.50
802;DHT22;383;48.766;9.270;2022-09-17T08:53:16;12.80;91.00
802;DHT22;383;48.766;9.270;2022-09-17T08:55:50;13.00;89.90
802;DHT22;383;48.766;9.270;2022-09-17T08:58:38;13.20;89.40
802;DHT22;383;48.766;9.270;2022-09-17T09:01:14;13.30;88.90
802;DHT22;383;48.766;9.270;2022-09-17T09:04:02;13.40;90.30
802;DHT22;383;48.766;9.270;2022-09-17T09:06:33;13.60;89.20
802;DHT22;383;48.766;9.270;2022-09-17T09:09:04;13.70;88.20
802;DHT22;383;48.766;9.270;2022-09-17T09:11:32;14.00;88.20
802;DHT22;383;48.766;9.270;2022-09-17T09:14:03;14.30;84.90
802;DHT22;383;48.766;9.270;2022-09-17T09:16:35;14.40;82.80
802;DHT22;383;48.766;9.270;2022-09-17T09:19:15;14.40;82.60
802;DHT22;383;48.766;9.270;2022-09-17T09:21:51;14.50;83.50
802;DHT22;383;48.766;9.270;2022-09-17T09:24:23;14.80;83.70
802;DHT22;383;48.766;9.270;2022-09-17T09:26:57;15.00;80.30
802;DHT22;383;48.766;9.270;2022-09-17T09:29:37;15.00;80.40
802;DHT22;383;48.766;9.270;2022-09-17T09:32:16;14.90;80.20
802;DHT22;383;48.766;9.270;2022-09-17T09:34:48;14.80;81.20
802;DHT22;383;48.766;9.270;2022-09-17T09:37:18;14.80;81.60
802;DHT22;383;48.766;9.270;2022-09-17T09:39:48;14.90;78.50
802;DHT22;383;48.766;9.270;2022-09-17T09:42:24;14.80;80.00
802;DHT22;383;48.766;9.270;2022-09-17T09:44:52;14.90;79.80
802;DHT22;383;48.766;9.270;2022-09-17T09:47:31;14.80;78.70
802;DHT22;383;48.766;9.270;2022-09-17T09:50:22;14.80;77.30
802;DHT22;383;48.766;9.270;2022-09-17T09:52:58;14.70;79.00
802;DHT22;383;48.766;9.270;2022-09-17T09:55:39;14.50;80.60
802;DHT22;383;48.766;9.270;2022-09-17T09:58:17;14.50;81.80
802;DHT22;383;48.766;9.270;2022-09-17T10:00:49;14.50;82.20
802;DHT22;383;48.766;9.270;2022-09-17T10:03:19;14.60;79.10
802;DHT22;383;48.766;9.270;2022-09-17T10:05:58;14.70;81.00
802;DHT22;383;48.766;9.270;2022-09-17T10:08:26;14.70;79.50
802;DHT22;383;48.766;9.270;2022-09-17T10:10:58;14.70;80.60
802;DHT22;383;48.766;9.270;2022-09-17T10:13:26;14.80;78.70
802;DHT22;383;48.766;9.270;2022-09-17T10:15:52;14.70;78.10
802;DHT22;383;48.766;9.270;2022-09-17T10:18:20;14.70;78.20
802;DHT22;383;48.766;9.270;2022-09-17T10:20:52;14.70;79.30
802;DHT22;383;48.766;9.270;2022-09-17T10:23:21;14.60;77.50
802;DHT22;383;48.766;9.270;2022-09-17T10:25:49;14.60;78.20
802;DHT22;383;48.766;9.270;2022-09-17T10:28:34;14.60;79.70
802;DHT22;383;48.766;9.270;2022-09-17T10:31:03;14.60;79.40
802;DHT22;383;48.766;9.270;2022-09-17T10:33:34;14.70;78.10
802;DHT22;383;48.766;9.270;2022-09-17T10:36:04;14.70;78.20
802;DHT22;383;48.766;9.270;2022-09-17T10:38:35;14.90;80.20
802;DHT22;383;48.766;9.270;2022-09-17T10:41:14;15.20;77.80
802;DHT22;383;48.766;9.270;2022-09-17T10:43:41;15.50;72.80
802;DHT22;383;48.766;9.270;2022-09-17T10:46:11;15.80;73.40
802;DHT22;383;48.766;9.270;2022-09-17T10:48:42;16.00;72.30
802;DHT22;383;48.766;9.270;2022-09-17T10:51:10;15.90;71.90
802;DHT22;383;48.766;9.270;2022-09-17T10:54:03;16.00;72.30
802;DHT22;383;48.766;9.270;2022-09-17T10:56:34;16.20;72.30
802;DHT22;383;48.766;9.270;2022-09-17T11:02:08;16.00;71.20
802;DHT22;383;48.766;9.270;2022-09-17T11:04:45;16.10;70.90
802;DHT22;383;48.766;9.270;2022-09-17T11:07:31;16.20;68.30
802;DHT22;383;48.766;9.270;2022-09-17T11:10:11;16.30;70.40
802;DHT22;383;48.766;9.270;2022-09-17T11:12:52;16.50;67.90
802;DHT22;383;48.766;9.270;2022-09-17T11:15:31;16.60;66.70
802;DHT22;383;48.766;9.270;2022-09-17T11:18:18;16.80;68.40
802;DHT22;383;48.766;9.270;2022-09-17T11:21:00;17.00;67.50
802;DHT22;383;48.766;9.270;2022-09-17T11:26:38;17.30;67.50
802;DHT22;383;48.766;9.270;2022-09-17T11:29:23;17.30;61.70
802;DHT22;383;48.766;9.270;2022-09-17T11:31:59;17.30;63.30
802;DHT22;383;48.766;9.270;2022-09-17T11:34:29;17.30;61.30
802;DHT22;383;48.766;9.270;2022-09-17T11:37:03;17.10;64.20
802;DHT22;383;48.766;9.270;2022-09-17T11:39:35;17.00;64.30
802;DHT22;383;48.766;9.270;2022-09-17T11:42:10;16.80;61.50
802;DHT22;383;48.766;9.270;2022-09-17T11:44:43;16.70;62.50
802;DHT22;383;48.766;9.270;2022-09-17T11:47:13;16.80;64.30
802;DHT22;383;48.766;9.270;2022-09-17T11:49:43;16.80;64.30
802;DHT22;383;48.766;9.270;2022-09-17T11:52:16;16.90;63.90
802;DHT22;383;48.766;9.270;2022-09-17T11:54:48;17.10;63.50
802;DHT22;383;48.766;9.270;2022-09-17T11:57:25;17.10;63.80
802;DHT22;383;48.766;9.270;2022-09-17T11:59:56;17.10;61.00
802;DHT22;383;48.766;9.270;2022-09-17T12:02:26;17.30;62.50
802;DHT22;383;48.766;9.270;2022-09-17T12:05:00;17.30;60.00
802;DHT22;383;48.766;9.270;2022-09-17T12:07:35;17.30;62.50
802;DHT22;383;48.766;9.270;2022-09-17T12:10:18;17.40;61.40
802;DHT22;383;48.766;9.270;2022-09-17T12:12:52;17.30;60.90
802;DHT22;383;48.766;9.270;2022-09-17T12:15:22;17.10;63.30
802;DHT22;383;48.766;9.270;2022-09-17T12:17:55;17.00;61.50
802;DHT22;383;48.766;9.270;2022-09-17T12:20:31;16.90;63.00
802;DHT22;383;48.766;9.270;2022-09-17T12:23:02;16.70;62.60
802;DHT22;383;48.766;9.270;2022-09-17T12:25:35;16.60;64.20
802;DHT22;383;48.766;9.270;2022-09-17T12:28:08;16.60;64.90
802;DHT22;383;48.766;9.270;2022-09-17T12:30:39;16.40;66.60
802;DHT22;383;48.766;9.270;2022-09-17T12:33:18;16.30;72.50
802;DHT22;383;48.766;9.270;2022-09-17T12:36:18;16.20;70.70
802;DHT22;383;48.766;9.270;2022-09-17T12:39:08;15.80;74.90
802;DHT22;383;48.766;9.270;2022-09-17T12:41:45;15.40;79.50
802;DHT22;383;48.766;9.270;2022-09-17T12:44:41;15.20;83.00
802;DHT22;383;48.766;9.270;2022-09-17T12:47:35;15.10;84.90
802;DHT22;383;48.766;9.270;2022-09-17T12:50:18;15.00;86.40
802;DHT22;383;48.766;9.270;2022-09-17T12:53:01;15.20;87.30
802;DHT22;383;48.766;9.270;2022-09-17T12:55:45;15.10;83.20
802;DHT22;383;48.766;9.270;2022-09-17T12:58:24;15.00;83.50
802;DHT22;383;48.766;9.270;2022-09-17T13:01:00;14.80;86.00
802;DHT22;383;48.766;9.270;2022-09-17T13:03:32;14.70;81.20
802;DHT22;383;48.766;9.270;2022-09-17T13:09:02;14.50;84.00
802;DHT22;383;48.766;9.270;2022-09-17T13:11:44;14.50;81.80
802;DHT22;383;48.766;9.270;2022-09-17T13:14:18;14.40;81.80
802;DHT22;383;48.766;9.270;2022-09-17T13:16:53;14.20;81.20
802;DHT22;383;48.766;9.270;2022-09-17T13:19:29;14.10;81.20
802;DHT22;383;48.766;9.270;2022-09-17T13:22:01;14.10;82.80
802;DHT22;383;48.766;9.270;2022-09-17T13:24:32;13.90;81.90
802;DHT22;383;48.766;9.270;2022-09-17T13:27:01;13.80;82.70
802;DHT22;383;48.766;9.270;2022-09-17T13:29:56;13.90;84.00
802;DHT22;383;48.766;9.270;2022-09-17T13:32:45;14.00;84.00
802;DHT22;383;48.766;9.270;2022-09-17T13:35:49;14.10;85.20
802;DHT22;383;48.766;9.270;2022-09-17T13:38:17;14.10;83.50
802;DHT22;383;48.766;9.270;2022-09-17T13:40:45;14.10;83.70
802;DHT22;383;48.766;9.270;2022-09-17T13:43:15;14.10;85.90
802;DHT22;383;48.766;9.270;2022-09-17T13:46:13;14.20;84.50
802;DHT22;383;48.766;9.270;2022-09-17T13:48:51;14.30;81.20
802;DHT22;383;48.766;9.270;2022-09-17T13:51:47;14.40;82.00
802;DHT22;383;48.766;9.270;2022-09-17T13:54:16;14.40;82.60
802;DHT22;383;48.766;9.270;2022-09-17T13:56:45;14.30;81.40
802;DHT22;383;48.766;9.270;2022-09-17T13:59:17;14.50;83.00
802;DHT22;383;48.766;9.270;2022-09-17T14:02:00;14.50;79.90
802;DHT22;383;48.766;9.270;2022-09-17T14:07:34;14.70;81.50
802;DHT22;383;48.766;9.270;2022-09-17T14:10:39;14.90;81.00
802;DHT22;383;48.766;9.270;2022-09-17T14:13:39;15.10;80.30
802;DHT22;383;48.766;9.270;2022-09-17T14:16:34;15.30;79.90
802;DHT22;383;48.766;9.270;2022-09-17T14:19:18;15.40;80.60
802;DHT22;383;48.766;9.270;2022-09-17T14:21:57;15.70;79.10
802;DHT22;383;48.766;9.270;2022-09-17T14:24:28;15.80;77.10
802;DHT22;383;48.766;9.270;2022-09-17T14:27:06;15.90;76.50
802;DHT22;383;48.766;9.270;2022-09-17T14:30:05;16.00;77.00
802;DHT22;383;48.766;9.270;2022-09-17T14:32:36;15.80;76.00
802;DHT22;383;48.766;9.270;2022-09-17T14:35:14;15.70;74.50
802;DHT22;383;48.766;9.270;2022-09-17T14:37:46;15.80;76.20
802;DHT22;383;48.766;9.270;2022-09-17T14:40:17;15.90;76.20
802;DHT22;383;48.766;9.270;2022-09-17T14:42:45;16.10;76.30
802;DHT22;383;48.766;9.270;2022-09-17T14:45:16;16.20;75.40
802;DHT22;383;48.766;9.270;2022-09-17T14:47:45;16.20;75.40
802;DHT22;383;48.766;9.270;2022-09-17T14:50:19;16.20;74.80
802;DHT22;383;48.766;9.270;2022-09-17T14:52:49;16.20;75.60
802;DHT22;383;48.766;9.270;2022-09-17T14:55:18;16.30;75.30
802;DHT22;383;48.766;9.270;2022-09-17T14:57:47;16.40;75.20
802;DHT22;383;48.766;9.270;2022-09-17T15:00:21;16.40;73.70
802;DHT22;383;48.766;9.270;2022-09-17T15:02:50;16.10;75.70
802;DHT22;383;48.766;9.270;2022-09-17T15:05:21;16.10;75.00
802;DHT22;383;48.766;9.270;2022-09-17T15:07:50;16.10;73.40
802;DHT22;383;48.766;9.270;2022-09-17T15:10:19;16.00;74.80
802;DHT22;383;48.766;9.270;2022-09-17T15:12:47;16.10;75.30
802;DHT22;383;48.766;9.270;2022-09-17T15:15:20;16.10;74.20
802;DHT22;383;48.766;9.270;2022-09-17T15:17:49;16.20;74.10
802;DHT22;383;48.766;9.270;2022-09-17T15:20:19;16.10;73.70
802;DHT22;383;48.766;9.270;2022-09-17T15:22:53;16.20;74.50
802;DHT22;383;48.766;9.270;2022-09-17T15:25:22;16.20;74.60
802;DHT22;383;48.766;9.270;2022-09-17T15:27:54;16.20;73.00
802;DHT22;383;48.766;9.270;2022-09-17T15:30:23;16.10;73.40
802;DHT22;383;48.766;9.270;2022-09-17T15:32:51;16.00;72.00
802;DHT22;383;48.766;9.270;2022-09-17T15:35:22;15.90;73.70
802;DHT22;383;48.766;9.270;2022-09-17T15:37:51;15.60;74.00
802;DHT22;383;48.766;9.270;2022-09-17T15:40:28;15.60;76.10
802;DHT22;383;48.766;9.270;2022-09-17T15:43:01;15.40;74.80
802;DHT22;383;48.766;9.270;2022-09-17T15:45:29;15.40;75.30
802;DHT22;383;48.766;9.270;2022-09-17T15:47:57;15.40;75.40
802;DHT22;383;48.766;9.270;2022-09-17T15:50:26;15.30;76.20
802;DHT22;383;48.766;9.270;2022-09-17T15:53:13;15.40;75.40
802;DHT22;383;48.766;9.270;2022-09-17T15:55:42;15.50;76.10
802;DHT22;383;48.766;9.270;2022-09-17T15:58:22;15.60;75.20
802;DHT22;383;48.766;9.270;2022-09-17T16:01:49;15.40;74.60
802;DHT22;383;48.766;9.270;2022-09-17T16:04:19;15.40;75.00
802;DHT22;383;48.766;9.270;2022-09-17T16:09:44;15.50;74.00
802;DHT22;383;48.766;9.270;2022-09-17T16:12:15;15.50;74.60
802;DHT22;383;48.766;9.270;2022-09-17T16:14:44;15.40;74.90
802;DHT22;383;48.766;9.270;2022-09-17T16:17:26;15.40;75.30
802;DHT22;383;48.766;9.270;2022-09-17T16:19:54;15.20;74.50
802;DHT22;383;48.766;9.270;2022-09-17T16:22:22;15.10;75.60
802;DHT22;383;48.766;9.270;2022-09-17T16:24:50;14.90;75.30
802;DHT22;383;48.766;9.270;2022-09-17T16:27:21;14.90;75.60
802;DHT22;383;48.766;9.270;2022-09-17T16:29:50;14.90;76.20
802;DHT22;383;48.766;9.270;2022-09-17T16:32:17;14.90;75.00
802;DHT22;383;48.766;9.270;2022-09-17T16:34:44;14.90;75.70
802;DHT22;383;48.766;9.270;2022-09-17T16:37:11;14.90;74.50
802;DHT22;383;48.766;9.270;2022-09-17T16:39:37;15.10;75.30
802;DHT22;383;48.766;9.270;2022-09-17T16:42:04;15.20;75.00
802;DHT22;383;48.766;9.270;2022-09-17T16:44:32;15.30;74.40
802;DHT22;383;48.766;9.270;2022-09-17T16:46:59;15.30;74.20
802;DHT22;383;48.766;9.270;2022-09-17T16:49:26;15.30;74.90
802;DHT22;383;48.766;9.270;2022-09-17T16:51:53;15.30;74.50
802;DHT22;383;48.766;9.270;2022-09-17T16:54:19;15.20;73.60
802;DHT22;383;48.766;9.270;2022-09-17T16:56:46;15.20;74.90
802;DHT22;383;48.766;9.270;2022-09-17T16:59:13;15.10;74.60
802;DHT22;383;48.766;9.270;2022-09-17T17:01:44;15.10;75.60
802;DHT22;383;48.766;9.270;2022-09-17T17:04:14;15.10;75.80
802;DHT22;383;48.766;9.270;2022-09-17T17:06:42;15.10;76.10
802;DHT22;383;48.766;9.270;2022-09-17T17:09:08;15.10;75.70
802;DHT22;383;48.766;9.270;2022-09-17T17:11:37;15.00;75.00
802;DHT22;383;48.766;9.270;2022-09-17T17:14:05;15.00;76.00
802;DHT22;383;48.766;9.270;2022-09-17T17:16:35;15.00;76.60
802;DHT22;383;48.766;9.270;2022-09-17T17:19:03;15.00;76.00
802;DHT22;383;48.766;9.270;2022-09-17T17:21:30;15.00;76.50
802;DHT22;383;48.766;9.270;2022-09-17T17:23:57;14.80;82.00
802;DHT22;383;48.766;9.270;2022-09-17T17:26:24;14.50;86.10